TimePDT,TemperatureF,Dew PointF,Humidity,Sea Level PressureIn,VisibilityMPH,Wind Direction,Wind SpeedMPH,Gust SpeedMPH,PrecipitationIn,Events,Conditions,WindDirDegrees,DateUTC
12:15 AM,53.6,35.6,51,30.41,10.0,Calm,Calm,-,N/A,,Clear,0,2013-06-28 07:15:00
12:35 AM,53.6,32.0,44,30.41,10.0,Calm,Calm,-,N/A,,Clear,0,2013-06-28 07:35:00
12:55 AM,51.8,32.0,47,30.41,10.0,Calm,Calm,-,N/A,,Clear,0,2013-06-28 07:55:00
1:15 AM,51.8,32.0,47,30.41,10.0,Calm,Calm,-,N/A,,Clear,0,2013-06-28 08:15:00
1:35 AM,51.8,30.2,44,30.40,10.0,Calm,Calm,-,N/A,,Clear,0,2013-06-28 08:35:00
1:55 AM,50.0,30.2,47,30.39,10.0,Calm,Calm,-,N/A,,Clear,0,2013-06-28 08:55:00
2:15 AM,50.0,32.0,50,30.39,10.0,Calm,Calm,-,N/A,,Clear,0,2013-06-28 09:15:00
2:35 AM,50.0,32.0,50,30.39,10.0,Calm,Calm,-,N/A,,Clear,0,2013-06-28 09:35:00
2:55 AM,50.0,32.0,50,30.39,10.0,Calm,Calm,-,N/A,,Clear,0,2013-06-28 09:55:00
3:15 AM,50.0,32.0,50,30.38,10.0,Calm,Calm,-,N/A,,Clear,0,2013-06-28 10:15:00
3:35 AM,48.2,32.0,54,30.38,10.0,Calm,Calm,-,N/A,,Clear,0,2013-06-28 10:35:00
3:55 AM,48.2,32.0,54,30.38,10.0,Calm,Calm,-,N/A,,Clear,0,2013-06-28 10:55:00
4:15 AM,48.2,32.0,54,30.38,10.0,Calm,Calm,-,N/A,,Clear,0,2013-06-28 11:15:00
4:35 AM,48.2,32.0,54,30.38,10.0,Calm,Calm,-,N/A,,Clear,0,2013-06-28 11:35:00
4:55 AM,48.2,32.0,54,30.38,10.0,Calm,Calm,-,N/A,,Clear,0,2013-06-28 11:55:00
5:55 AM,48.2,32.0,54,30.39,10.0,Calm,Calm,-,N/A,,Clear,0,2013-06-28 12:55:00
6:15 AM,50.0,32.0,50,30.39,10.0,Calm,Calm,-,N/A,,Clear,0,2013-06-28 13:15:00
6:35 AM,50.0,33.8,54,30.39,10.0,Calm,Calm,-,N/A,,Clear,0,2013-06-28 13:35:00
6:55 AM,53.6,37.4,54,30.39,10.0,Calm,Calm,-,N/A,,Clear,0,2013-06-28 13:55:00
7:15 AM,57.2,41.0,55,30.39,10.0,West,3.5,-,N/A,,Clear,280,2013-06-28 14:15:00
7:35 AM,60.8,39.2,45,30.39,10.0,West,3.5,-,N/A,,Clear,270,2013-06-28 14:35:00
7:55 AM,64.4,35.6,34,30.39,10.0,West,4.6,-,N/A,,Clear,270,2013-06-28 14:55:00
8:15 AM,68.0,35.6,30,30.39,10.0,West,3.5,-,N/A,,Clear,270,2013-06-28 15:15:00
8:35 AM,71.6,37.4,29,30.39,10.0,West,4.6,-,N/A,,Clear,270,2013-06-28 15:35:00
8:55 AM,73.4,39.2,29,30.39,10.0,West,3.5,-,N/A,,Clear,280,2013-06-28 15:55:00
9:15 AM,77.0,37.4,24,30.39,10.0,Calm,Calm,-,N/A,,Clear,0,2013-06-28 16:15:00
9:35 AM,78.8,35.6,21,30.39,10.0,Calm,Calm,-,N/A,,Clear,0,2013-06-28 16:35:00
9:55 AM,78.8,35.6,21,30.39,10.0,ENE,4.6,-,N/A,,Clear,60,2013-06-28 16:55:00
10:15 AM,80.6,35.6,20,30.39,7.0,ENE,5.8,-,N/A,,Clear,70,2013-06-28 17:15:00
10:35 AM,80.6,35.6,20,30.39,10.0,ENE,5.8,-,N/A,,Clear,60,2013-06-28 17:35:00
10:55 AM,80.6,37.4,21,30.39,10.0,NE,5.8,-,N/A,,Clear,50,2013-06-28 17:55:00
11:15 AM,80.6,37.4,21,30.39,10.0,East,12.7,18.4,N/A,,Clear,80,2013-06-28 18:15:00
11:35 AM,82.4,37.4,20,30.39,10.0,ENE,10.4,-,N/A,,Clear,70,2013-06-28 18:35:00
11:55 AM,82.4,37.4,20,30.39,10.0,NW,4.6,-,N/A,,Clear,310,2013-06-28 18:55:00
12:15 PM,80.6,35.6,20,30.39,10.0,West,10.4,-,N/A,,Scattered Clouds,270,2013-06-28 19:15:00
12:35 PM,80.6,35.6,20,30.38,10.0,West,9.2,-,N/A,,Scattered Clouds,260,2013-06-28 19:35:00
12:55 PM,82.4,35.6,19,30.37,10.0,West,9.2,-,N/A,,Clear,260,2013-06-28 19:55:00
1:15 PM,82.4,33.8,17,30.37,10.0,WSW,8.1,-,N/A,,Clear,250,2013-06-28 20:15:00
1:35 PM,82.4,33.8,17,30.36,10.0,West,9.2,16.1,N/A,,Clear,260,2013-06-28 20:35:00
1:55 PM,86.0,33.8,15,30.36,10.0,West,9.2,-,N/A,,Clear,260,2013-06-28 20:55:00
2:15 PM,86.0,33.8,15,30.35,10.0,South,6.9,-,N/A,,Clear,170,2013-06-28 21:15:00
2:35 PM,84.2,33.8,16,30.35,10.0,West,10.4,-,N/A,,Clear,260,2013-06-28 21:35:00
2:55 PM,82.4,33.8,17,30.35,10.0,West,10.4,-,N/A,,Scattered Clouds,260,2013-06-28 21:55:00
3:15 PM,84.2,35.6,18,30.35,10.0,WSW,8.1,-,N/A,,Scattered Clouds,250,2013-06-28 22:15:00
3:35 PM,84.2,35.6,18,30.34,10.0,West,10.4,-,N/A,,Scattered Clouds,270,2013-06-28 22:35:00
3:55 PM,82.4,35.6,19,30.34,10.0,West,12.7,17.3,N/A,,Clear,260,2013-06-28 22:55:00
4:15 PM,82.4,35.6,19,30.33,10.0,West,12.7,-,N/A,,Clear,270,2013-06-28 23:15:00
4:35 PM,82.4,35.6,19,30.33,10.0,West,9.2,-,N/A,,Scattered Clouds,260,2013-06-28 23:35:00
4:55 PM,80.6,33.8,18,30.33,10.0,West,8.1,-,N/A,,Clear,260,2013-06-28 23:55:00
5:15 PM,80.6,37.4,21,30.33,10.0,West,11.5,-,N/A,,Clear,260,2013-06-29 00:15:00
5:35 PM,78.8,35.6,21,30.33,10.0,West,11.5,16.1,N/A,,Clear,260,2013-06-29 00:35:00
5:55 PM,78.8,37.4,23,30.33,10.0,WSW,6.9,-,N/A,,Clear,240,2013-06-29 00:55:00
6:15 PM,78.8,35.6,21,30.33,10.0,WSW,5.8,-,N/A,,Clear,250,2013-06-29 01:15:00
6:35 PM,77.0,33.8,21,30.33,10.0,WSW,5.8,-,N/A,,Clear,250,2013-06-29 01:35:00
6:55 PM,75.2,35.6,24,30.33,10.0,West,8.1,-,N/A,,Clear,260,2013-06-29 01:55:00
7:15 PM,73.4,33.8,23,30.33,10.0,West,9.2,-,N/A,,Clear,270,2013-06-29 02:15:00
7:35 PM,73.4,33.8,23,30.33,10.0,West,8.1,-,N/A,,Clear,260,2013-06-29 02:35:00
7:55 PM,71.6,35.6,27,30.33,10.0,WSW,3.5,-,N/A,,Clear,240,2013-06-29 02:55:00
8:15 PM,71.6,35.6,27,30.33,10.0,Calm,Calm,-,N/A,,Clear,0,2013-06-29 03:15:00
8:35 PM,69.8,33.8,27,30.33,10.0,Calm,Calm,-,N/A,,Clear,0,2013-06-29 03:35:00
8:55 PM,66.2,33.8,30,30.34,10.0,SSW,3.5,-,N/A,,Clear,210,2013-06-29 03:55:00
9:15 PM,64.4,33.8,32,30.34,10.0,Calm,Calm,-,N/A,,Clear,0,2013-06-29 04:15:00
9:35 PM,64.4,33.8,32,30.35,10.0,Calm,Calm,-,N/A,,Clear,0,2013-06-29 04:35:00
9:55 PM,62.6,33.8,34,30.35,10.0,Calm,Calm,-,N/A,,Clear,0,2013-06-29 04:55:00
10:15 PM,60.8,32.0,34,30.35,10.0,Calm,Calm,-,N/A,,Clear,0,2013-06-29 05:15:00
10:35 PM,59.0,32.0,36,30.36,10.0,Calm,Calm,-,N/A,,Clear,0,2013-06-29 05:35:00
10:55 PM,59.0,32.0,36,30.36,10.0,Calm,Calm,-,N/A,,Clear,0,2013-06-29 05:55:00
11:15 PM,57.2,30.2,36,30.36,10.0,Calm,Calm,-,N/A,,Clear,0,2013-06-29 06:15:00
11:35 PM,55.4,30.2,38,30.36,10.0,Calm,Calm,-,N/A,,Clear,0,2013-06-29 06:35:00
11:55 PM,55.4,26.6,33,30.36,10.0,Calm,Calm,-,N/A,,Clear,0,2013-06-29 06:55:00